Time;durP1;ratioP1;P1;durP2;ratioP2;P2;SDS_P1;SDS_P2;PMS_P1;PMS_P2;Temp;Humidity;BMP_temperature;BMP_pressure;BME280_temperature;BME280_humidity;BME280_pressure;Samples;Min_cycle;Max_cycle;Signal;HPM_P1;HPM_P2
2022/01/07 00:02:00;;;;;;;8.77;4.13;;;0.60;99.90;;;;;;4982533;28;20043;-84
2022/01/07 00:04:26;;;;;;;8.57;4.07;;;0.60;99.90;;;;;;4982372;28;20079;-84
2022/01/07 00:06:52;;;;;;;9.50;4.13;;;0.60;99.90;;;;;;4982962;28;20031;-84
2022/01/07 00:09:18;;;;;;;9.82;4.38;;;0.60;99.90;;;;;;4982788;28;20019;-83
2022/01/07 00:11:45;;;;;;;8.57;4.07;;;0.60;99.90;;;;;;4982629;28;20054;-84
2022/01/07 00:14:11;;;;;;;9.65;4.45;;;0.50;99.90;;;;;;4982756;28;20023;-84
2022/01/07 00:16:37;;;;;;;9.40;4.30;;;0.50;99.90;;;;;;4982548;28;20078;-84
2022/01/07 00:19:03;;;;;;;7.90;4.30;;;0.50;99.90;;;;;;4966909;28;20037;-83
2022/01/07 00:21:29;;;;;;;9.77;4.10;;;0.40;99.90;;;;;;4982820;28;20054;-83
2022/01/07 00:23:55;;;;;;;13.93;4.45;;;0.40;99.90;;;;;;4982181;28;20016;-85
2022/01/07 00:26:21;;;;;;;15.88;5.20;;;0.40;99.90;;;;;;4982511;28;20061;-84
2022/01/07 00:28:47;;;;;;;11.13;4.28;;;0.40;99.90;;;;;;4982967;28;20019;-84
2022/01/07 00:31:12;;;;;;;13.18;4.70;;;0.40;99.90;;;;;;4982621;28;20114;-84
2022/01/07 00:33:39;;;;;;;9.15;3.58;;;0.40;99.90;;;;;;4982301;28;20043;-83
2022/01/07 00:36:06;;;;;;;8.88;4.13;;;0.40;99.90;;;;;;4982717;28;20015;-85
2022/01/07 00:38:32;;;;;;;9.18;4.40;;;0.40;99.90;;;;;;4981979;28;20024;-83
2022/01/07 00:40:58;;;;;;;8.93;4.55;;;0.40;99.90;;;;;;4982498;28;20027;-83
2022/01/07 00:43:24;;;;;;;6.97;3.97;;;0.40;99.90;;;;;;4981848;28;20015;-84
2022/01/07 00:45:50;;;;;;;9.35;4.10;;;0.40;99.90;;;;;;4982064;28;20039;-83
2022/01/07 00:48:16;;;;;;;15.82;4.32;;;0.40;99.90;;;;;;4982613;28;20023;-83
2022/01/07 00:50:42;;;;;;;12.23;3.75;;;0.40;99.90;;;;;;4982613;28;20035;-83
2022/01/07 00:53:07;;;;;;;11.30;3.70;;;0.40;99.90;;;;;;4982550;28;20038;-84
2022/01/07 00:55:35;;;;;;;9.00;4.10;;;0.30;99.90;;;;;;4966046;28;20021;-84
2022/01/07 00:58:00;;;;;;;7.43;4.05;;;0.30;99.90;;;;;;4982790;28;20139;-85
2022/01/07 01:00:27;;;;;;;8.40;3.92;;;0.30;99.90;;;;;;4982173;28;20031;-86
2022/01/07 01:02:55;;;;;;;8.15;4.57;;;0.30;99.90;;;;;;4982432;28;20035;-84
2022/01/07 01:05:21;;;;;;;10.65;4.70;;;0.30;99.90;;;;;;4982550;28;20042;-84
2022/01/07 01:07:48;;;;;;;14.10;4.50;;;0.20;99.90;;;;;;4981547;28;20012;-85
2022/01/07 01:10:16;;;;;;;15.07;5.10;;;0.20;99.90;;;;;;4982157;28;20046;-86
2022/01/07 01:12:43;;;;;;;11.35;4.25;;;0.30;99.90;;;;;;4981666;28;20101;-85
2022/01/07 01:15:11;;;;;;;11.70;4.35;;;0.30;99.90;;;;;;4982477;28;20015;-87
2022/01/07 01:17:38;;;;;;;11.15;4.20;;;0.30;99.90;;;;;;4981771;28;20026;-87
2022/01/07 01:20:06;;;;;;;9.95;4.88;;;0.30;99.90;;;;;;4975021;28;20039;-90
2022/01/07 01:22:32;;;;;;;8.43;4.25;;;0.30;99.90;;;;;;4970866;28;20023;-90
2022/01/07 01:24:58;;;;;;;11.52;5.20;;;0.20;99.90;;;;;;4970872;29;20035;-89
2022/01/07 01:27:23;;;;;;;9.60;4.95;;;0.20;99.90;;;;;;4974037;29;20041;-89
2022/01/07 01:29:49;;;;;;;12.25;5.57;;;0.20;99.90;;;;;;4970948;29;20031;-88
2022/01/07 01:32:16;;;;;;;14.70;5.70;;;0.20;99.90;;;;;;4967442;28;20098;-89
2022/01/07 01:34:42;;;;;;;11.85;5.47;;;0.10;99.90;;;;;;4970862;28;20030;-87
2022/01/07 01:37:09;;;;;;;11.63;5.45;;;0.10;99.90;;;;;;4981028;28;20011;-86
2022/01/07 01:39:35;;;;;;;16.40;5.32;;;0.10;99.90;;;;;;4981362;28;20046;-87
2022/01/07 01:42:01;;;;;;;10.07;5.45;;;0.10;99.90;;;;;;4981201;28;20047;-89
2022/01/07 01:44:27;;;;;;;11.63;5.45;;;0.10;99.90;;;;;;4981636;28;20035;-88
2022/01/07 01:46:53;;;;;;;10.65;5.30;;;0.20;99.90;;;;;;4980654;28;20019;-89
2022/01/07 01:49:19;;;;;;;16.25;5.97;;;0.20;99.90;;;;;;4981486;28;20042;-87
2022/01/07 01:51:45;;;;;;;15.80;6.22;;;0.20;99.90;;;;;;4981355;28;20031;-89
2022/01/07 01:54:13;;;;;;;15.25;7.03;;;0.10;99.90;;;;;;4980986;28;20015;-88
2022/01/07 01:56:41;;;;;;;14.23;6.43;;;0.10;99.90;;;;;;4981366;28;20061;-90
2022/01/07 01:59:08;;;;;;;12.05;6.30;;;0.10;99.90;;;;;;4981868;28;20019;-88
2022/01/07 02:01:40;;;;;;;14.70;7.40;;;0.10;99.90;;;;;;4981394;28;20039;-89
2022/01/07 02:04:08;;;;;;;19.75;7.35;;;0.00;99.90;;;;;;4981214;28;20093;-89
2022/01/07 02:06:36;;;;;;;18.88;7.45;;;0.00;99.90;;;;;;4981342;28;20015;-89
2022/01/07 02:09:02;;;;;;;15.05;7.35;;;0.00;99.90;;;;;;4980614;28;20016;-88
2022/01/07 02:11:28;;;;;;;14.63;7.30;;;0.00;99.90;;;;;;4981251;28;20027;-89
2022/01/07 02:13:56;;;;;;;13.55;6.53;;;0.00;99.90;;;;;;4980776;28;20046;-89
2022/01/07 02:16:27;;;;;;;18.05;6.60;;;0.00;99.90;;;;;;4980745;28;20099;-89
2022/01/07 02:18:53;;;;;;;12.48;7.10;;;0.00;99.90;;;;;;4981298;28;20015;-89
2022/01/07 02:21:20;;;;;;;21.05;7.03;;;-0.10;99.90;;;;;;4980028;28;20027;-89
2022/01/07 02:23:46;;;;;;;15.95;6.68;;;-0.10;99.90;;;;;;4980559;28;20026;-89
2022/01/07 02:26:13;;;;;;;15.23;7.43;;;-0.10;99.90;;;;;;4980742;28;20083;-88
2022/01/07 02:28:40;;;;;;;16.42;8.15;;;-0.10;99.90;;;;;;4981361;28;20075;-88
2022/01/07 02:31:07;;;;;;;15.38;7.90;;;-0.10;99.90;;;;;;4980733;28;20039;-88
2022/01/07 02:33:33;;;;;;;12.05;6.72;;;-0.10;99.90;;;;;;4981248;28;20027;-88
2022/01/07 02:36:06;;;;;;;14.93;7.05;;;-0.10;99.90;;;;;;4980712;28;20022;-89
2022/01/07 02:38:33;;;;;;;13.93;6.30;;;-0.10;99.90;;;;;;4980648;28;20027;-87
2022/01/07 02:40:59;;;;;;;14.68;6.57;;;-0.10;99.90;;;;;;4980485;28;20039;-89
2022/01/07 02:43:25;;;;;;;11.13;6.60;;;-0.10;99.90;;;;;;4964369;28;20023;-87
2022/01/07 02:45:51;;;;;;;16.02;6.80;;;-0.10;99.90;;;;;;4981078;28;20181;-89
2022/01/07 02:48:17;;;;;;;13.55;6.40;;;-0.10;99.90;;;;;;4979982;28;20026;-88
2022/01/07 02:50:43;;;;;;;11.88;6.50;;;-0.20;99.90;;;;;;4979597;28;20023;-89
2022/01/07 02:53:10;;;;;;;13.07;6.07;;;-0.10;99.90;;;;;;4980438;28;20027;-89
2022/01/07 02:55:37;;;;;;;12.30;6.65;;;-0.10;99.90;;;;;;4978273;28;20035;-87
2022/01/07 02:58:03;;;;;;;13.23;6.43;;;-0.20;99.90;;;;;;4978782;28;20090;-87
2022/01/07 03:00:30;;;;;;;12.48;5.80;;;-0.10;99.90;;;;;;4980331;28;20085;-88
2022/01/07 03:02:57;;;;;;;9.90;5.22;;;-0.10;99.90;;;;;;4980295;28;20015;-89
2022/01/07 03:05:23;;;;;;;12.68;5.47;;;-0.10;99.90;;;;;;4980164;28;20026;-91
2022/01/07 03:07:49;;;;;;;13.52;5.85;;;-0.20;99.90;;;;;;4977292;28;20031;-89
2022/01/07 03:10:20;;;;;;;10.68;5.18;;;-0.10;99.90;;;;;;4975583;28;20055;-88
2022/01/07 03:12:46;;;;;;;11.60;5.30;;;-0.10;99.90;;;;;;5000043;23;20045;-83
2022/01/07 03:15:15;;;;;;;10.45;5.68;;;0.00;99.90;;;;;;5014570;28;20018;-82
2022/01/07 03:17:41;;;;;;;9.80;5.40;;;0.00;99.90;;;;;;4984541;28;20045;-83
2022/01/07 03:20:08;;;;;;;10.77;5.40;;;0.00;99.90;;;;;;4978134;28;20032;-82
2022/01/07 03:22:35;;;;;;;13.40;5.57;;;0.10;99.90;;;;;;5003071;28;20037;-83
2022/01/07 03:25:00;;;;;;;10.27;5.20;;;0.10;99.90;;;;;;5004691;28;20063;-84
2022/01/07 03:27:26;;;;;;;10.15;5.47;;;0.10;99.90;;;;;;5003836;28;20058;-81
2022/01/07 03:29:52;;;;;;;9.68;5.18;;;0.00;99.90;;;;;;4989925;28;20030;-83
2022/01/07 03:32:18;;;;;;;12.35;5.75;;;0.00;99.90;;;;;;5007702;28;20044;-82
2022/01/07 03:34:44;;;;;;;13.68;5.30;;;-0.10;99.90;;;;;;5011962;28;20070;-83
2022/01/07 03:37:10;;;;;;;11.80;5.70;;;0.00;99.90;;;;;;4989178;28;20033;-85
2022/01/07 03:39:35;;;;;;;11.02;5.20;;;-0.10;99.90;;;;;;5007669;28;20025;-83
2022/01/07 03:42:03;;;;;;;8.85;4.95;;;-0.10;99.90;;;;;;5006279;28;20058;-83
2022/01/07 03:44:28;;;;;;;10.23;5.40;;;-0.10;99.90;;;;;;4990206;28;20026;-82
2022/01/07 03:46:54;;;;;;;10.80;4.72;;;0.00;99.90;;;;;;4995051;28;20036;-81
2022/01/07 03:49:20;;;;;;;11.05;5.60;;;-0.10;99.90;;;;;;5000074;28;20022;-80
2022/01/07 03:51:46;;;;;;;11.52;5.13;;;0.00;99.90;;;;;;5018430;28;20034;-81
2022/01/07 03:54:11;;;;;;;12.90;4.97;;;-0.10;99.90;;;;;;5003367;28;20021;-81
2022/01/07 03:56:37;;;;;;;12.00;5.03;;;-0.10;99.90;;;;;;5020094;28;20053;-80
2022/01/07 03:59:03;;;;;;;13.98;4.97;;;-0.10;99.90;;;;;;5019376;28;20026;-81
2022/01/07 04:01:29;;;;;;;9.13;4.90;;;-0.10;99.90;;;;;;5015249;28;20034;-80
2022/01/07 04:03:55;;;;;;;9.70;4.55;;;-0.10;99.90;;;;;;5001526;28;20034;-80
2022/01/07 04:06:21;;;;;;;12.07;4.65;;;-0.20;99.90;;;;;;5000516;28;20034;-82
2022/01/07 04:08:50;;;;;;;11.05;5.20;;;-0.10;99.90;;;;;;5001554;28;20010;-83
2022/01/07 04:11:16;;;;;;;11.00;5.10;;;-0.20;99.90;;;;;;5016327;28;20031;-81
2022/01/07 04:13:44;;;;;;;9.40;4.53;;;-0.20;99.90;;;;;;5013984;28;20030;-82
2022/01/07 04:16:10;;;;;;;8.32;4.53;;;-0.10;99.90;;;;;;4993833;28;20653;-82
2022/01/07 04:18:36;;;;;;;9.57;5.18;;;-0.10;99.90;;;;;;5006520;28;20022;-84
2022/01/07 04:21:02;;;;;;;11.30;4.90;;;-0.20;99.90;;;;;;5007020;28;20029;-83
2022/01/07 04:23:28;;;;;;;13.95;5.38;;;-0.20;99.90;;;;;;4990373;28;20813;-83
2022/01/07 04:25:54;;;;;;;13.63;4.97;;;-0.20;99.90;;;;;;5012775;28;20034;-82
2022/01/07 04:28:20;;;;;;;11.48;6.32;;;-0.30;99.90;;;;;;4998934;28;20026;-81
2022/01/07 04:30:46;;;;;;;11.20;5.47;;;-0.30;99.90;;;;;;5020064;28;20023;-80
2022/01/07 04:33:15;;;;;;;11.00;5.40;;;-0.30;99.90;;;;;;4996569;28;20018;-82
2022/01/07 04:35:42;;;;;;;11.57;4.63;;;-0.30;99.90;;;;;;5017327;28;20145;-80
2022/01/07 04:38:08;;;;;;;11.02;4.43;;;-0.30;99.90;;;;;;4985397;28;20074;-83
2022/01/07 04:40:35;;;;;;;7.05;4.03;;;-0.50;99.90;;;;;;5001846;28;20038;-80
2022/01/07 04:43:03;;;;;;;9.32;4.30;;;-0.60;99.90;;;;;;5018752;28;20030;-82
2022/01/07 04:45:29;;;;;;;9.60;4.25;;;-0.60;99.90;;;;;;5017221;28;20041;-82
2022/01/07 04:47:55;;;;;;;8.55;4.20;;;-0.60;99.90;;;;;;4993187;28;20064;-83
2022/01/07 04:50:22;;;;;;;9.30;3.95;;;-0.60;99.90;;;;;;4995572;28;20045;-81
2022/01/07 04:52:49;;;;;;;13.25;4.30;;;-0.70;99.90;;;;;;5014297;28;20098;-80
2022/01/07 04:55:23;;;;;;;9.85;4.15;;;-0.70;99.90;;;;;;5018823;28;20035;-79
2022/01/07 04:57:49;;;;;;;7.47;4.18;;;-0.70;99.90;;;;;;5019533;28;20239;-83
2022/01/07 05:00:17;;;;;;;8.13;4.20;;;-0.80;99.90;;;;;;5015161;28;20030;-82
2022/01/07 05:02:46;;;;;;;10.27;4.30;;;-0.90;99.90;;;;;;5011734;28;20030;-82
2022/01/07 05:05:12;;;;;;;6.30;3.63;;;-0.90;99.90;;;;;;5008703;28;20049;-83
2022/01/07 05:07:38;;;;;;;11.30;4.45;;;-0.90;99.90;;;;;;4989222;28;20445;-82
2022/01/07 05:10:05;;;;;;;9.52;3.50;;;-0.90;99.90;;;;;;5001006;28;20023;-82
2022/01/07 05:12:32;;;;;;;10.07;4.07;;;-0.90;99.90;;;;;;5001586;28;20066;-83
2022/01/07 05:14:57;;;;;;;9.80;4.35;;;-0.90;99.90;;;;;;5001780;28;20019;-83
2022/01/07 05:17:23;;;;;;;10.52;4.22;;;-0.90;99.90;;;;;;5001365;28;20098;-83
2022/01/07 05:19:49;;;;;;;12.88;4.28;;;-0.90;99.90;;;;;;4983722;28;20018;-81
2022/01/07 05:22:15;;;;;;;6.43;3.65;;;-1.00;99.90;;;;;;5000482;28;20041;-82
2022/01/07 05:24:41;;;;;;;8.43;3.75;;;-1.00;99.90;;;;;;5001840;28;20033;-82
2022/01/07 05:27:07;;;;;;;9.75;4.22;;;-1.00;99.90;;;;;;5009426;28;20023;-83
2022/01/07 05:29:35;;;;;;;9.23;3.83;;;-1.00;99.90;;;;;;5000764;28;20030;-82
2022/01/07 05:32:02;;;;;;;8.10;4.38;;;-1.00;99.90;;;;;;5009273;28;20037;-83
2022/01/07 05:34:28;;;;;;;10.05;4.50;;;-1.00;99.90;;;;;;4996051;28;20026;-79
2022/01/07 05:36:54;;;;;;;9.35;4.45;;;-1.00;99.90;;;;;;5007329;28;20033;-83
2022/01/07 05:39:19;;;;;;;12.63;4.55;;;-1.00;99.90;;;;;;4984137;28;20050;-83
2022/01/07 05:41:45;;;;;;;14.40;4.30;;;-1.00;99.90;;;;;;4982768;28;20041;-81
2022/01/07 05:44:11;;;;;;;9.65;3.70;;;-1.00;99.90;;;;;;5001030;28;20034;-82
2022/01/07 05:46:38;;;;;;;11.35;4.40;;;-1.00;99.90;;;;;;5007480;28;20027;-82
2022/01/07 05:49:04;;;;;;;14.02;4.25;;;-1.00;99.90;;;;;;4993099;28;20038;-84
2022/01/07 05:51:29;;;;;;;7.60;3.83;;;-1.00;99.90;;;;;;4999888;28;20034;-83
2022/01/07 05:53:55;;;;;;;9.10;4.20;;;-1.00;99.90;;;;;;5002961;28;20026;-83
2022/01/07 05:56:21;;;;;;;7.47;3.80;;;-1.00;99.90;;;;;;5015456;28;20049;-83
2022/01/07 05:58:47;;;;;;;9.50;4.40;;;-1.00;99.90;;;;;;4984272;28;20030;-81
2022/01/07 06:01:13;;;;;;;12.07;4.45;;;-1.00;99.90;;;;;;4991428;28;20030;-81
2022/01/07 06:03:41;;;;;;;8.85;4.43;;;-1.00;99.90;;;;;;4999567;28;20022;-82
2022/01/07 06:06:08;;;;;;;8.90;4.38;;;-1.00;99.90;;;;;;5011146;28;20033;-81
2022/01/07 06:08:34;;;;;;;15.00;4.07;;;-1.00;99.90;;;;;;4994311;28;20011;-82
2022/01/07 06:11:01;;;;;;;8.02;3.60;;;-1.00;99.90;;;;;;5014854;28;20502;-82
2022/01/07 06:13:27;;;;;;;9.73;4.00;;;-1.00;99.90;;;;;;4971076;28;20030;-82
2022/01/07 06:15:53;;;;;;;10.60;4.45;;;-1.00;99.90;;;;;;4985542;28;20065;-83
2022/01/07 06:18:19;;;;;;;8.23;3.80;;;-1.00;99.90;;;;;;4997827;28;20022;-81
2022/01/07 06:20:45;;;;;;;12.88;4.32;;;-1.00;99.90;;;;;;5000462;28;20165;-83
2022/01/07 06:23:10;;;;;;;11.95;4.28;;;-1.00;99.90;;;;;;5009291;28;20022;-83
2022/01/07 06:25:36;;;;;;;20.95;7.40;;;-0.90;99.90;;;;;;5016527;28;20067;-85
2022/01/07 06:28:02;;;;;;;21.23;7.55;;;-0.90;99.90;;;;;;5005975;28;20026;-83
2022/01/07 06:30:28;;;;;;;18.85;5.55;;;-0.90;99.90;;;;;;4986332;28;20084;-83
2022/01/07 06:32:54;;;;;;;15.88;6.55;;;-0.90;99.90;;;;;;4965837;28;20026;-81
2022/01/07 06:35:20;;;;;;;16.33;5.80;;;-0.90;99.90;;;;;;4985887;28;20086;-83
2022/01/07 06:37:46;;;;;;;17.08;5.75;;;-0.90;99.90;;;;;;5000565;28;20027;-88
2022/01/07 06:40:14;;;;;;;13.60;5.28;;;-1.00;99.90;;;;;;4986688;28;20034;-84
2022/01/07 06:42:40;;;;;;;12.48;5.60;;;-1.00;99.90;;;;;;5003068;28;20030;-84
2022/01/07 06:45:06;;;;;;;19.30;6.57;;;-1.10;99.90;;;;;;4984652;28;20089;-84
2022/01/07 06:47:32;;;;;;;12.88;5.85;;;-1.10;99.90;;;;;;4974929;28;20034;-84
2022/01/07 06:49:59;;;;;;;13.82;5.93;;;-1.10;99.90;;;;;;5000492;28;20065;-85
2022/01/07 06:52:25;;;;;;;10.40;5.38;;;-1.10;99.90;;;;;;5001361;28;20029;-85
2022/01/07 06:54:51;;;;;;;11.95;4.57;;;-1.10;99.90;;;;;;4986778;28;20035;-84
2022/01/07 06:57:17;;;;;;;14.32;4.47;;;-1.20;99.90;;;;;;5005337;28;20046;-84
2022/01/07 06:59:47;;;;;;;7.57;3.92;;;-1.10;99.90;;;;;;4985593;28;20034;-84
2022/01/07 07:02:13;;;;;;;9.63;4.32;;;-1.10;99.90;;;;;;5001828;28;20080;-85
2022/01/07 07:04:39;;;;;;;11.93;4.60;;;-1.10;99.90;;;;;;4987557;28;20086;-85
2022/01/07 07:07:05;;;;;;;11.45;3.53;;;-1.20;99.90;;;;;;5002258;28;20022;-86
2022/01/07 07:09:31;;;;;;;9.45;3.90;;;-1.10;99.90;;;;;;5003729;28;20034;-85
2022/01/07 07:11:57;;;;;;;11.55;3.90;;;-1.10;99.90;;;;;;5002261;28;20458;-85
2022/01/07 07:14:23;;;;;;;11.15;3.97;;;-1.10;99.90;;;;;;4984449;28;20038;-86
2022/01/07 07:16:49;;;;;;;10.30;4.18;;;-1.10;99.90;;;;;;5002427;28;20030;-84
2022/01/07 07:19:16;;;;;;;15.98;5.10;;;-1.10;99.90;;;;;;5010335;28;20268;-84
2022/01/07 07:21:43;;;;;;;11.40;4.70;;;-1.10;99.90;;;;;;5013409;28;20037;-83
2022/01/07 07:24:09;;;;;;;12.45;4.63;;;-1.10;99.90;;;;;;5013915;28;20049;-83
2022/01/07 07:26:34;;;;;;;12.70;5.03;;;-1.00;99.90;;;;;;4996903;28;20030;-81
2022/01/07 07:29:01;;;;;;;17.50;5.88;;;-1.00;99.90;;;;;;4995776;28;20090;-84
2022/01/07 07:31:26;;;;;;;11.85;4.53;;;-0.80;99.90;;;;;;4995209;28;20057;-81
2022/01/07 07:36:32;;;;;;;16.90;4.78;;;-0.60;99.90;;;;;;5016137;28;20022;-85
2022/01/07 07:39:06;;;;;;;10.23;4.00;;;-0.60;99.90;;;;;;5018314;28;20033;-84
2022/01/07 07:41:34;;;;;;;7.03;3.45;;;-0.50;99.90;;;;;;5001714;28;20034;-85
2022/01/07 07:44:00;;;;;;;21.83;4.68;;;-0.40;99.90;;;;;;5001367;28;20068;-85
2022/01/07 07:46:30;;;;;;;7.55;3.17;;;-0.40;99.90;;;;;;4980930;28;20030;-84
2022/01/07 07:48:56;;;;;;;10.30;3.83;;;-0.30;99.90;;;;;;4997467;28;20027;-84
2022/01/07 07:51:22;;;;;;;11.52;4.00;;;-0.30;99.90;;;;;;4994821;28;20037;-85
2022/01/07 07:53:48;;;;;;;12.63;3.33;;;-0.20;99.90;;;;;;4980934;28;20023;-84
2022/01/07 07:56:16;;;;;;;8.40;3.35;;;-0.20;99.90;;;;;;5007994;28;20022;-85
2022/01/07 07:58:43;;;;;;;14.98;3.85;;;-0.10;99.90;;;;;;5013913;28;20021;-85
2022/01/07 08:01:09;;;;;;;4.93;2.83;;;-0.10;99.90;;;;;;5014403;28;20031;-85
2022/01/07 08:03:35;;;;;;;12.27;3.08;;;0.00;99.90;;;;;;5012839;28;20038;-85
2022/01/07 08:06:01;;;;;;;8.50;3.25;;;0.00;99.90;;;;;;4997726;28;20107;-85
2022/01/07 08:08:27;;;;;;;8.50;3.08;;;0.10;99.90;;;;;;4996808;28;20027;-86
2022/01/07 08:10:57;;;;;;;9.35;3.40;;;0.10;99.90;;;;;;5001183;28;20077;-82
2022/01/07 08:16:05;;;;;;;9.63;2.97;;;0.20;99.90;;;;;;5011453;28;20031;-82
2022/01/07 08:18:33;;;;;;;9.88;3.33;;;0.10;99.90;;;;;;5015322;28;20006;-83
2022/01/07 08:21:08;;;;;;;6.72;2.80;;;0.20;99.90;;;;;;5002300;28;20045;-83
2022/01/07 08:23:36;;;;;;;5.15;2.75;;;0.30;99.90;;;;;;5013706;28;20437;-85
2022/01/07 08:26:08;;;;;;;9.35;3.75;;;0.40;99.90;;;;;;5016236;28;20037;-84
2022/01/07 08:28:44;;;;;;;10.52;3.33;;;0.60;99.90;;;;;;4990582;28;20042;-86
2022/01/07 08:36:29;;;;;;;6.07;2.92;;;1.40;99.90;;;;;;4999273;28;20035;-85
2022/01/07 08:38:56;;;;;;;5.85;2.45;;;2.20;99.90;;;;;;5010816;28;20078;-83
2022/01/07 08:41:26;;;;;;;6.55;2.80;;;2.90;99.90;;;;;;5001592;28;20085;-83
2022/01/07 08:43:54;;;;;;;14.75;3.17;;;3.50;99.90;;;;;;5000598;28;20026;-82
2022/01/07 08:46:19;;;;;;;6.47;2.67;;;4.00;99.90;;;;;;4994116;28;20026;-86
2022/01/07 08:48:46;;;;;;;7.05;2.90;;;4.30;99.90;;;;;;5007549;28;20029;-85
2022/01/07 08:51:11;;;;;;;7.00;2.50;;;4.90;99.30;;;;;;5010051;28;20049;-86
2022/01/07 08:53:37;;;;;;;7.40;2.53;;;5.70;97.70;;;;;;4999608;28;20030;-85
2022/01/07 08:56:05;;;;;;;6.93;2.95;;;5.90;96.40;;;;;;5017544;28;20023;-82
2022/01/07 08:58:31;;;;;;;7.80;3.47;;;7.00;95.00;;;;;;5019060;28;20030;-84
2022/01/07 09:00:56;;;;;;;9.93;3.05;;;7.20;93.00;;;;;;5015951;28;20037;-84
2022/01/07 09:03:23;;;;;;;9.70;3.00;;;7.50;92.10;;;;;;5003904;28;20038;-84
2022/01/07 09:05:49;;;;;;;8.60;3.05;;;7.80;91.30;;;;;;5017469;28;20002;-84
2022/01/07 09:08:15;;;;;;;8.73;2.90;;;7.80;90.30;;;;;;5013218;28;20045;-84
2022/01/07 09:10:42;;;;;;;8.05;3.17;;;8.00;90.00;;;;;;5004930;28;20026;-83
2022/01/07 09:13:11;;;;;;;7.45;3.10;;;8.00;89.40;;;;;;5086218;23;20056;-86
2022/01/07 09:15:38;;;;;;;8.40;3.35;;;8.80;87.90;;;;;;5037596;28;20022;-87
2022/01/07 09:18:10;;;;;;;10.82;4.18;;;9.50;84.70;;;;;;5034006;28;20010;-85
2022/01/07 09:20:43;;;;;;;14.48;6.38;;;10.00;83.50;;;;;;5031020;28;20030;-84
2022/01/07 09:23:11;;;;;;;10.40;3.67;;;9.90;81.50;;;;;;5028921;28;20030;-86
2022/01/07 09:25:37;;;;;;;7.72;3.83;;;9.90;81.20;;;;;;5010441;28;20033;-85
2022/01/07 09:28:05;;;;;;;10.88;3.83;;;10.70;79.70;;;;;;5041298;28;20041;-86
2022/01/07 09:30:31;;;;;;;8.00;3.72;;;10.40;77.80;;;;;;5029915;28;20029;-86
2022/01/07 09:32:58;;;;;;;7.90;3.05;;;9.90;79.20;;;;;;5029896;28;20045;-87
2022/01/07 09:35:24;;;;;;;10.10;3.88;;;10.30;79.00;;;;;;5022417;28;20077;-87
2022/01/07 09:37:50;;;;;;;7.32;3.35;;;10.50;77.80;;;;;;5023273;28;20080;-87
2022/01/07 09:40:17;;;;;;;6.20;2.97;;;10.40;76.80;;;;;;5022029;28;20018;-87
2022/01/07 09:43:13;;;;;;;9.27;2.88;;;10.50;77.20;;;;;;5033465;28;20026;-88
2022/01/07 09:45:39;;;;;;;7.90;3.05;;;10.90;75.80;;;;;;5013569;28;20041;-85
2022/01/07 09:48:08;;;;;;;6.07;3.00;;;11.20;75.70;;;;;;5036356;28;20060;-87
2022/01/07 09:50:34;;;;;;;5.47;3.00;;;11.30;74.40;;;;;;5026331;28;20048;-84
2022/01/07 09:53:05;;;;;;;9.10;3.40;;;11.50;73.90;;;;;;5011989;28;20049;-86
2022/01/07 09:55:31;;;;;;;10.35;4.35;;;12.00;72.80;;;;;;5027427;28;20048;-86
2022/01/07 09:57:57;;;;;;;7.22;3.35;;;12.60;71.60;;;;;;5024692;28;20105;-87
2022/01/07 10:00:23;;;;;;;5.82;2.80;;;12.70;70.00;;;;;;5025735;28;20010;-86
2022/01/07 10:03:05;;;;;;;10.60;4.65;;;12.00;71.70;;;;;;5034348;28;20044;-85
2022/01/07 10:05:31;;;;;;;8.07;3.50;;;12.20;70.60;;;;;;5031450;28;20059;-85
2022/01/07 10:08:21;;;;;;;7.22;3.47;;;12.60;70.10;;;;;;5026043;28;20021;-87
2022/01/07 10:11:18;;;;;;;7.80;3.50;;;12.30;69.60;;;;;;5009616;28;20076;-88
2022/01/07 10:15:09;;;;;;;6.05;2.80;;;12.30;70.30;;;;;;5021570;28;20096;-89
2022/01/07 10:18:31;;;;;;;;;;;;;;;;;;;;;
2022/01/07 10:22:15;;;;;;;12.18;5.55;;;12.30;69.50;;;;;;5017702;28;20033;-88
2022/01/07 10:29:39;;;;;;;7.40;2.72;;;12.80;68.50;;;;;;5009460;28;20058;-89
2022/01/07 10:40:27;;;;;;;13.85;4.22;;;13.60;65.20;;;;;;4889038;29;20052;-87
2022/01/07 10:43:09;;;;;;;9.38;4.25;;;13.80;64.50;;;;;;4885302;29;20174;-90
2022/01/07 10:45:37;;;;;;;8.82;4.60;;;14.20;62.90;;;;;;4900956;28;20041;-92
2022/01/07 10:48:09;;;;;;;9.70;3.88;;;13.40;63.30;;;;;;4922716;29;20095;-91
2022/01/07 10:50:50;;;;;;;8.52;4.47;;;13.70;63.20;;;;;;4964016;28;20470;-93
2022/01/07 10:53:32;;;;;;;9.52;3.28;;;13.70;62.10;;;;;;5021844;28;20153;-90
2022/01/07 10:56:00;;;;;;;11.43;4.45;;;13.20;62.30;;;;;;5025386;28;20548;-87
2022/01/07 10:58:26;;;;;;;9.65;4.53;;;12.50;64.50;;;;;;5019139;28;20049;-86
2022/01/07 11:00:53;;;;;;;10.73;4.72;;;12.50;65.90;;;;;;5026217;28;20437;-84
2022/01/07 11:03:21;;;;;;;11.43;4.65;;;13.00;63.90;;;;;;5019930;28;20056;-91
2022/01/07 11:05:47;;;;;;;9.45;2.90;;;13.20;63.60;;;;;;5028737;28;20053;-88
2022/01/07 11:08:15;;;;;;;7.03;3.05;;;12.60;63.90;;;;;;5006632;28;20034;-89
2022/01/07 11:10:43;;;;;;;10.77;3.35;;;12.40;64.60;;;;;;5021294;28;20539;-91
2022/01/07 11:13:10;;;;;;;11.82;5.30;;;12.50;64.60;;;;;;5024009;28;20385;-90
2022/01/07 11:15:41;;;;;;;8.93;3.72;;;12.80;64.40;;;;;;5017213;28;20013;-86
2022/01/07 11:19:03;;;;;;;9.18;3.88;;;12.50;65.00;;;;;;5037471;28;20038;-89
2022/01/07 11:21:30;;;;;;;6.88;3.00;;;12.20;64.80;;;;;;5037849;28;20014;-91
2022/01/07 11:23:55;;;;;;;4.47;2.72;;;12.10;65.80;;;;;;5020747;28;20033;-90
2022/01/07 11:26:23;;;;;;;7.97;3.20;;;11.90;66.60;;;;;;5036523;28;20014;-88
2022/01/07 11:32:48;;;;;;;8.05;3.00;;;12.00;65.60;;;;;;4975788;28;20050;-91
2022/01/07 11:36:01;;;;;;;6.78;2.75;;;11.50;66.30;;;;;;4971853;28;20022;-91
2022/01/07 11:39:22;;;;;;;;;;;;;;;;;;;;;
2022/01/07 11:43:08;;;;;;;;;;;;;;;;;;;;;
2022/01/07 12:02:56;;;;;;;;;;;;;;;;;;;;;
2022/01/07 13:05:48;;;;;;;11.35;3.40;;;3.80;86.10;;;;;;5053757;28;20045;-87
2022/01/07 13:08:19;;;;;;;12.95;4.15;;;3.80;86.10;;;;;;5039823;28;20034;-86
2022/01/07 13:10:50;;;;;;;8.18;3.53;;;3.80;86.20;;;;;;5055885;28;20020;-86
2022/01/07 13:13:21;;;;;;;17.70;5.07;;;3.80;86.70;;;;;;5053003;28;20045;-87
2022/01/07 13:16:08;;;;;;;6.55;3.22;;;3.80;86.70;;;;;;5037423;28;20081;-88
2022/01/07 13:18:40;;;;;;;12.02;4.95;;;3.70;87.30;;;;;;5019679;28;20058;-87
2022/01/07 13:21:06;;;;;;;8.88;4.32;;;3.60;87.70;;;;;;5029553;28;20057;-88
2022/01/07 13:23:49;;;;;;;14.45;4.88;;;3.60;87.80;;;;;;5019377;28;20037;-86
2022/01/07 13:26:16;;;;;;;8.95;3.65;;;3.50;88.20;;;;;;5033923;28;20021;-88
2022/01/07 13:28:45;;;;;;;10.38;4.80;;;3.50;88.40;;;;;;5034764;28;20034;-88
2022/01/07 13:31:13;;;;;;;13.07;5.45;;;3.50;88.10;;;;;;5018203;28;20029;-87
2022/01/07 13:33:41;;;;;;;14.23;5.05;;;3.40;88.30;;;;;;5035609;28;20025;-87
2022/01/07 13:36:13;;;;;;;16.17;4.50;;;3.40;88.90;;;;;;5017509;28;20006;-87
2022/01/07 13:38:40;;;;;;;11.50;4.28;;;3.40;89.20;;;;;;5041129;28;20018;-85
2022/01/07 13:41:15;;;;;;;10.73;4.07;;;3.30;89.40;;;;;;5038750;28;20034;-86
2022/01/07 13:43:44;;;;;;;9.10;3.83;;;3.30;89.50;;;;;;5038420;28;20017;-86
2022/01/07 13:46:23;;;;;;;15.85;5.05;;;3.20;89.70;;;;;;5036108;28;20024;-86
2022/01/07 13:48:57;;;;;;;18.55;5.35;;;3.20;90.10;;;;;;5037903;28;20037;-85
2022/01/07 13:51:28;;;;;;;15.20;5.05;;;3.20;90.20;;;;;;5039890;28;20040;-86
2022/01/07 13:54:14;;;;;;;11.15;4.18;;;3.20;90.40;;;;;;5031460;28;20022;-85
2022/01/07 13:57:04;;;;;;;8.95;3.55;;;3.20;90.30;;;;;;5036901;28;20090;-85
2022/01/07 13:59:44;;;;;;;11.63;3.80;;;3.20;90.30;;;;;;5040503;28;20025;-84
2022/01/07 14:02:33;;;;;;;12.90;4.93;;;3.20;90.30;;;;;;5037068;28;20025;-84
2022/01/07 14:04:59;;;;;;;12.40;3.95;;;3.20;90.10;;;;;;5038106;28;20021;-86
2022/01/07 14:07:25;;;;;;;11.82;5.10;;;3.20;90.10;;;;;;5040512;28;20014;-85
2022/01/07 14:10:17;;;;;;;13.05;4.10;;;3.10;90.00;;;;;;5037758;28;20048;-85
2022/01/07 14:12:51;;;;;;;11.15;3.58;;;3.10;90.00;;;;;;5038499;28;20058;-85
2022/01/07 14:15:39;;;;;;;12.57;3.80;;;3.10;89.70;;;;;;5038796;28;20021;-88
2022/01/07 14:18:20;;;;;;;12.18;3.97;;;3.10;89.70;;;;;;5039343;28;20018;-86
2022/01/07 14:20:58;;;;;;;9.45;4.00;;;3.10;90.00;;;;;;5039163;28;20029;-87
2022/01/07 14:23:32;;;;;;;14.40;4.30;;;3.00;89.80;;;;;;5038412;28;20078;-86
2022/01/07 14:26:10;;;;;;;12.65;4.03;;;3.10;89.60;;;;;;5038686;28;20022;-87
2022/01/07 14:28:42;;;;;;;12.48;4.22;;;3.00;89.30;;;;;;5039147;28;20105;-85
2022/01/07 14:31:10;;;;;;;9.98;3.60;;;3.00;88.70;;;;;;5022402;28;20056;-85
2022/01/07 14:33:41;;;;;;;16.67;6.60;;;2.90;88.20;;;;;;5037600;28;20038;-86
2022/01/07 14:36:08;;;;;;;12.13;5.07;;;2.90;88.70;;;;;;5034579;28;20064;-86
2022/01/07 14:38:34;;;;;;;11.45;4.18;;;2.90;88.20;;;;;;5034831;28;20081;-87
2022/01/07 14:40:59;;;;;;;11.48;3.80;;;2.80;88.40;;;;;;5038111;28;20029;-85
2022/01/07 14:43:25;;;;;;;13.77;4.60;;;2.80;88.80;;;;;;5038978;28;20036;-86
2022/01/07 14:45:51;;;;;;;8.55;3.72;;;2.80;88.60;;;;;;5038072;28;20037;-85
2022/01/07 14:48:17;;;;;;;20.02;5.80;;;2.70;88.80;;;;;;5021544;28;20018;-85